createdAt,value
2019-05-30T00:00:05.865Z,99.90
2019-05-30T00:02:20.231Z,99.90
2019-05-30T00:04:47.799Z,99.90
2019-05-30T00:07:15.385Z,99.90
2019-05-30T00:09:43.015Z,99.90
2019-05-30T00:12:10.661Z,99.90
2019-05-30T00:14:38.248Z,99.90
2019-05-30T00:17:05.810Z,99.90
2019-05-30T00:19:34.104Z,99.90
2019-05-30T00:22:03.727Z,99.90
2019-05-30T00:24:31.150Z,99.90
2019-05-30T00:26:58.712Z,99.90
2019-05-30T00:29:26.284Z,99.90
2019-05-30T00:31:53.844Z,99.90
2019-05-30T00:34:21.411Z,99.90
2019-05-30T00:36:48.974Z,99.90
2019-05-30T00:39:16.519Z,99.90
2019-05-30T00:41:44.126Z,99.90
2019-05-30T00:44:11.671Z,99.90
2019-05-30T00:46:39.228Z,99.90
2019-05-30T00:49:06.800Z,99.90
2019-05-30T00:51:34.348Z,99.90
2019-05-30T00:54:02.896Z,99.90
2019-05-30T00:56:30.554Z,99.90
2019-05-30T00:58:58.678Z,99.90
2019-05-30T01:01:26.484Z,99.90
2019-05-30T01:03:54.060Z,99.90
2019-05-30T01:06:21.619Z,99.90
2019-05-30T01:08:49.196Z,99.90
2019-05-30T01:11:16.756Z,99.90
2019-05-30T01:13:44.342Z,99.90
2019-05-30T01:16:11.896Z,99.90
2019-05-30T01:18:39.440Z,99.90
2019-05-30T01:21:07.459Z,99.90
2019-05-30T01:23:36.797Z,99.90
2019-05-30T01:26:05.445Z,99.90
2019-05-30T01:28:33.211Z,99.90
2019-05-30T01:31:07.328Z,99.90
2019-05-30T01:33:30.079Z,99.90
2019-05-30T01:35:57.834Z,99.90
2019-05-30T01:38:25.476Z,99.90
2019-05-30T01:40:53.015Z,99.90
2019-05-30T01:43:20.573Z,99.90
2019-05-30T01:45:48.121Z,99.90
2019-05-30T01:48:15.682Z,99.90
2019-05-30T01:50:43.238Z,99.90
2019-05-30T01:53:10.884Z,99.90
2019-05-30T01:55:38.496Z,99.90
2019-05-30T01:58:07.221Z,99.90
2019-05-30T02:00:38.948Z,99.90
2019-05-30T02:03:07.121Z,99.90
2019-05-30T02:05:34.716Z,99.90
2019-05-30T02:08:03.141Z,99.90
2019-05-30T02:10:30.767Z,99.90
2019-05-30T02:12:59.285Z,99.90
2019-05-30T02:15:26.957Z,99.90
2019-05-30T02:17:54.577Z,99.90
2019-05-30T02:20:22.121Z,99.90
2019-05-30T02:22:49.697Z,99.90
2019-05-30T02:25:17.244Z,99.90
2019-05-30T02:27:44.794Z,99.90
2019-05-30T02:30:14.850Z,99.90
2019-05-30T02:32:41.660Z,99.90
2019-05-30T02:35:12.130Z,99.90
2019-05-30T02:37:38.473Z,99.90
2019-05-30T02:40:09.805Z,99.90
2019-05-30T02:42:35.695Z,99.90
2019-05-30T02:45:05.479Z,99.90
2019-05-30T02:47:33.122Z,99.90
2019-05-30T02:50:01.550Z,99.90
2019-05-30T02:52:30.104Z,99.90
2019-05-30T02:54:57.660Z,99.90
2019-05-30T02:57:25.204Z,99.90
2019-05-30T02:59:52.768Z,99.90
2019-05-30T03:02:20.324Z,99.90
2019-05-30T03:04:47.915Z,99.90
2019-05-30T03:07:15.453Z,99.90
2019-05-30T03:09:42.998Z,99.90
2019-05-30T03:12:11.477Z,99.90
2019-05-30T03:14:39.827Z,99.90
2019-05-30T03:17:10.208Z,99.90
2019-05-30T03:19:36.663Z,99.90
2019-05-30T03:22:05.191Z,99.90
2019-05-30T03:24:33.518Z,99.90
2019-05-30T03:27:02.521Z,99.90
2019-05-30T03:29:30.299Z,99.90
2019-05-30T03:31:57.875Z,99.90
2019-05-30T03:34:29.319Z,99.90
2019-05-30T03:36:57.235Z,99.90
2019-05-30T03:39:24.804Z,99.90
2019-05-30T03:41:52.378Z,99.90
2019-05-30T03:44:19.928Z,99.90
2019-05-30T03:46:49.147Z,99.90
2019-05-30T03:49:18.446Z,99.90
2019-05-30T03:51:45.972Z,99.90
2019-05-30T03:54:14.200Z,99.90
2019-05-30T03:56:46.987Z,99.90
2019-05-30T03:59:22.196Z,99.90
2019-05-30T04:02:09.501Z,99.90
2019-05-30T04:04:42.036Z,99.90
2019-05-30T04:07:16.902Z,99.90
2019-05-30T04:09:45.014Z,99.90
2019-05-30T04:12:16.448Z,99.90
2019-05-30T04:14:43.831Z,99.90
2019-05-30T04:17:13.684Z,99.90
2019-05-30T04:19:40.674Z,99.90
2019-05-30T04:22:09.328Z,99.90
2019-05-30T04:24:37.479Z,99.90
2019-05-30T04:27:05.034Z,99.90
2019-05-30T04:29:32.625Z,99.90
2019-05-30T04:32:00.184Z,99.90
2019-05-30T04:34:27.729Z,99.90
2019-05-30T04:36:55.292Z,99.90
2019-05-30T04:39:22.843Z,99.90
2019-05-30T04:41:50.408Z,99.90
2019-05-30T04:44:19.750Z,99.90
2019-05-30T04:46:47.304Z,99.90
2019-05-30T04:49:16.807Z,99.90
2019-05-30T04:51:44.995Z,99.90
2019-05-30T04:54:14.046Z,99.90
2019-05-30T04:56:41.850Z,99.90
2019-05-30T04:59:10.774Z,99.90
2019-05-30T05:01:38.647Z,99.90
2019-05-30T05:04:06.225Z,99.90
2019-05-30T05:06:33.785Z,99.90
2019-05-30T05:09:01.357Z,99.90
2019-05-30T05:11:28.893Z,99.90
2019-05-30T05:13:56.552Z,99.90
2019-05-30T05:16:34.923Z,99.90
2019-05-30T05:18:53.378Z,99.90
2019-05-30T05:21:21.054Z,99.90
2019-05-30T05:23:48.700Z,99.90
2019-05-30T05:26:17.222Z,99.90
2019-05-30T05:28:45.064Z,99.90
2019-05-30T05:31:12.612Z,99.90
2019-05-30T05:33:53.669Z,99.90
2019-05-30T05:36:09.465Z,99.90
2019-05-30T05:38:37.005Z,99.90
2019-05-30T05:41:04.602Z,99.90
2019-05-30T05:43:32.136Z,99.90
2019-05-30T05:45:59.709Z,99.90
2019-05-30T05:48:27.272Z,99.90
2019-05-30T05:50:54.840Z,99.90
2019-05-30T05:53:25.912Z,99.90
2019-05-30T05:55:53.471Z,99.90
2019-05-30T05:58:21.031Z,99.90
2019-05-30T06:00:48.592Z,99.90
2019-05-30T06:03:16.820Z,99.90
2019-05-30T06:06:02.015Z,99.90
2019-05-30T06:08:31.248Z,99.90
2019-05-30T06:10:58.810Z,99.90
2019-05-30T06:13:29.465Z,99.90
2019-05-30T06:15:57.025Z,99.90
2019-05-30T06:18:24.601Z,99.90
2019-05-30T06:20:52.170Z,99.90
2019-05-30T06:23:19.750Z,99.90
2019-05-30T06:25:47.288Z,99.90
2019-05-30T06:28:14.861Z,99.90
2019-05-30T06:30:42.419Z,99.90
2019-05-30T06:33:10.026Z,99.90
2019-05-30T06:35:37.560Z,99.90
2019-05-30T06:38:05.109Z,99.90
2019-05-30T06:40:33.791Z,99.90
2019-05-30T06:43:01.335Z,99.90
2019-05-30T06:45:28.956Z,99.90
2019-05-30T06:47:56.524Z,99.90
2019-05-30T06:50:24.720Z,99.90
2019-05-30T06:52:52.313Z,99.90
2019-05-30T06:55:21.003Z,99.90
2019-05-30T06:57:48.714Z,99.90
2019-05-30T07:00:16.391Z,99.90
2019-05-30T07:02:43.985Z,99.90
2019-05-30T07:05:12.132Z,99.90
2019-05-30T07:07:40.358Z,99.90
2019-05-30T07:10:08.192Z,99.90
2019-05-30T07:12:35.772Z,99.90
2019-05-30T07:15:04.975Z,99.90
2019-05-30T07:17:33.661Z,99.90
2019-05-30T07:20:01.289Z,99.90
2019-05-30T07:22:29.700Z,99.90
2019-05-30T07:24:57.303Z,99.90
2019-05-30T07:27:26.064Z,99.90
2019-05-30T07:29:53.838Z,99.90
2019-05-30T07:32:23.929Z,99.90
2019-05-30T07:35:05.665Z,99.90
2019-05-30T07:37:20.970Z,99.90
2019-05-30T07:39:48.538Z,99.90
2019-05-30T07:42:16.076Z,99.90
2019-05-30T07:44:43.650Z,99.90
2019-05-30T07:47:12.040Z,99.90
2019-05-30T07:49:39.606Z,99.90
2019-05-30T07:52:07.178Z,99.90
2019-05-30T07:54:35.139Z,99.90
2019-05-30T07:57:02.912Z,99.90
2019-05-30T07:59:30.481Z,99.90
2019-05-30T08:01:58.042Z,99.90
2019-05-30T08:04:25.590Z,99.90
2019-05-30T08:06:53.149Z,99.90
2019-05-30T08:09:20.697Z,99.90
2019-05-30T08:11:48.281Z,99.90
2019-05-30T08:14:15.825Z,99.90
2019-05-30T08:16:43.417Z,99.90
2019-05-30T08:19:11.009Z,99.90
2019-05-30T08:21:38.600Z,99.90
2019-05-30T08:24:06.154Z,99.90
2019-05-30T08:26:34.329Z,99.90
2019-05-30T08:29:01.935Z,99.90
2019-05-30T08:31:30.425Z,99.90
2019-05-30T08:33:58.119Z,99.90
2019-05-30T08:36:25.747Z,99.90
2019-05-30T08:38:53.319Z,99.90
2019-05-30T08:41:20.893Z,99.90
2019-05-30T08:43:48.458Z,99.90
2019-05-30T08:46:16.025Z,99.90
2019-05-30T08:48:43.609Z,99.90
2019-05-30T08:51:11.232Z,99.90
2019-05-30T08:53:38.784Z,99.90
2019-05-30T08:56:06.345Z,99.90
2019-05-30T08:58:34.567Z,99.90
2019-05-30T09:01:02.136Z,99.90
2019-05-30T09:03:29.700Z,99.90
2019-05-30T09:06:03.807Z,99.90
2019-05-30T09:08:26.541Z,99.90
2019-05-30T09:10:54.090Z,99.90
2019-05-30T09:13:21.652Z,99.90
2019-05-30T09:15:49.580Z,99.90
2019-05-30T09:18:17.257Z,99.90
2019-05-30T09:20:45.296Z,99.90
2019-05-30T09:23:12.931Z,99.90
2019-05-30T09:25:41.531Z,99.90
2019-05-30T09:28:09.311Z,99.90
2019-05-30T09:30:38.247Z,99.90
2019-05-30T09:33:06.119Z,99.70
2019-05-30T09:35:33.711Z,99.40
2019-05-30T09:38:01.271Z,99.90
2019-05-30T09:40:28.811Z,98.40
2019-05-30T09:42:56.372Z,96.40
2019-05-30T09:45:23.930Z,96.40
2019-05-30T09:47:51.574Z,94.60
2019-05-30T09:50:19.265Z,92.90
2019-05-30T09:52:47.213Z,84.10
2019-05-30T09:55:16.486Z,90.20
2019-05-30T09:57:44.626Z,76.10
2019-05-30T10:00:16.462Z,75.90
2019-05-30T10:02:44.931Z,65.50
2019-05-30T10:05:13.307Z,59.40
2019-05-30T10:07:40.870Z,54.60
2019-05-30T10:10:08.499Z,55.90
2019-05-30T10:12:36.078Z,53.00
2019-05-30T10:15:05.547Z,52.90
2019-05-30T10:17:33.090Z,50.60
2019-05-30T10:20:00.648Z,48.10
2019-05-30T10:22:28.199Z,44.50
2019-05-30T10:24:55.758Z,43.50
2019-05-30T10:27:23.337Z,39.90
2019-05-30T10:29:51.272Z,39.00
2019-05-30T10:32:19.012Z,31.80
2019-05-30T10:34:47.880Z,35.70
2019-05-30T10:37:15.582Z,30.00
2019-05-30T10:39:43.190Z,31.00
2019-05-30T10:42:10.770Z,34.50
2019-05-30T10:44:38.367Z,31.30
2019-05-30T10:47:05.949Z,29.50
2019-05-30T10:49:34.986Z,30.50
2019-05-30T10:52:03.009Z,29.70
2019-05-30T10:54:30.575Z,31.20
2019-05-30T10:56:58.128Z,30.30
2019-05-30T10:59:25.701Z,28.70
2019-05-30T11:01:54.468Z,28.90
2019-05-30T11:04:22.111Z,32.20
2019-05-30T11:07:04.927Z,34.20
2019-05-30T11:09:20.653Z,32.40
2019-05-30T11:11:48.625Z,33.00
2019-05-30T11:14:16.233Z,34.60
2019-05-30T11:16:43.765Z,35.20
2019-05-30T11:19:11.333Z,34.10
2019-05-30T11:21:38.902Z,35.10
2019-05-30T11:24:06.480Z,36.90
2019-05-30T11:26:34.033Z,34.10
2019-05-30T11:29:01.574Z,36.70
2019-05-30T11:31:29.156Z,39.80
2019-05-30T11:33:57.160Z,38.40
2019-05-30T11:36:24.839Z,41.50
2019-05-30T11:38:53.597Z,40.30
2019-05-30T11:41:21.345Z,41.30
2019-05-30T11:43:49.374Z,43.50
2019-05-30T11:46:16.931Z,44.10
2019-05-30T11:48:44.487Z,44.10
2019-05-30T11:51:12.042Z,43.60
2019-05-30T11:53:39.662Z,43.20
2019-05-30T11:56:07.230Z,42.70
2019-05-30T11:58:34.819Z,41.90
2019-05-30T12:01:02.383Z,43.80
2019-05-30T12:03:29.944Z,41.10
2019-05-30T12:05:58.598Z,44.70
2019-05-30T12:08:26.340Z,45.50
2019-05-30T12:10:54.985Z,45.20
2019-05-30T12:13:22.716Z,46.30
2019-05-30T12:15:51.315Z,45.40
2019-05-30T12:18:19.038Z,44.70
2019-05-30T12:20:46.572Z,47.50
2019-05-30T12:23:14.203Z,47.70
2019-05-30T12:25:41.765Z,46.60
2019-05-30T12:28:09.337Z,45.30
2019-05-30T12:30:36.958Z,42.60
2019-05-30T12:33:04.492Z,45.70
2019-05-30T12:35:32.051Z,47.00
2019-05-30T12:38:04.141Z,47.70
2019-05-30T12:40:28.885Z,47.90
2019-05-30T12:42:58.997Z,49.10
2019-05-30T12:45:25.731Z,48.70
2019-05-30T12:47:53.267Z,45.30
2019-05-30T12:50:20.836Z,43.20
2019-05-30T12:52:48.366Z,47.60
2019-05-30T12:55:15.933Z,44.50
2019-05-30T12:57:43.478Z,45.10
2019-05-30T13:00:17.406Z,45.70
2019-05-30T13:02:41.405Z,45.70
2019-05-30T13:05:08.947Z,44.40
2019-05-30T13:07:36.525Z,42.90
2019-05-30T13:10:07.576Z,44.10
2019-05-30T13:12:35.209Z,43.40
2019-05-30T13:15:03.815Z,45.30
2019-05-30T13:17:31.555Z,43.20
2019-05-30T13:19:59.125Z,44.20
2019-05-30T13:22:26.725Z,46.50
2019-05-30T13:24:55.495Z,42.70
2019-05-30T13:27:23.225Z,47.20
2019-05-30T13:29:50.769Z,43.90
2019-05-30T13:32:18.328Z,47.50
2019-05-30T13:34:45.872Z,49.30
2019-05-30T13:37:13.441Z,48.60
2019-05-30T13:39:40.994Z,48.60
2019-05-30T13:42:08.558Z,48.60
2019-05-30T13:44:36.086Z,47.10
2019-05-30T13:47:04.570Z,48.60
2019-05-30T13:49:32.308Z,49.40
2019-05-30T13:52:00.848Z,48.30
2019-05-30T13:54:28.498Z,47.90
2019-05-30T13:56:56.046Z,49.30
2019-05-30T13:59:23.594Z,50.20
2019-05-30T14:01:51.135Z,48.50
2019-05-30T14:04:18.696Z,44.70
2019-05-30T14:06:46.240Z,47.90
2019-05-30T14:09:13.831Z,45.80
2019-05-30T14:11:41.372Z,43.20
2019-05-30T14:14:09.014Z,47.20
2019-05-30T14:16:36.579Z,47.60
2019-05-30T14:19:05.350Z,50.20
2019-05-30T14:21:32.970Z,49.70
2019-05-30T14:24:01.299Z,49.40
2019-05-30T14:26:29.008Z,49.00
2019-05-30T14:28:56.544Z,50.30
2019-05-30T14:31:24.167Z,48.90
2019-05-30T14:33:51.737Z,49.20
2019-05-30T14:36:19.274Z,50.80
2019-05-30T14:38:58.016Z,51.20
2019-05-30T14:41:16.157Z,50.40
2019-05-30T14:43:43.700Z,48.50
2019-05-30T14:46:20.039Z,50.20
2019-05-30T14:48:47.598Z,49.40
2019-05-30T14:51:15.146Z,47.60
2019-05-30T14:53:42.708Z,47.00
2019-05-30T14:56:11.173Z,47.10
2019-05-30T14:58:38.935Z,48.10
2019-05-30T15:01:07.129Z,48.00
2019-05-30T15:03:34.720Z,49.10
2019-05-30T15:06:02.330Z,49.10
2019-05-30T15:08:29.948Z,50.50
2019-05-30T15:10:57.529Z,50.50
2019-05-30T15:13:25.061Z,50.10
2019-05-30T15:15:52.632Z,50.80
2019-05-30T15:18:20.256Z,49.20
2019-05-30T15:20:47.850Z,48.00
2019-05-30T15:23:15.793Z,50.00
2019-05-30T15:25:43.433Z,51.70
2019-05-30T15:28:12.217Z,50.70
2019-05-30T15:30:39.920Z,50.00
2019-05-30T15:33:08.293Z,51.30
2019-05-30T15:35:36.028Z,51.80
2019-05-30T15:38:03.579Z,51.50
2019-05-30T15:40:31.152Z,50.90
2019-05-30T15:42:58.721Z,51.60
2019-05-30T15:45:26.297Z,52.60
2019-05-30T15:47:53.843Z,53.10
2019-05-30T15:50:21.417Z,52.60
2019-05-30T15:52:48.965Z,53.20
2019-05-30T15:55:17.471Z,52.90
2019-05-30T15:57:45.228Z,49.80
2019-05-30T16:00:14.048Z,49.20
2019-05-30T16:02:41.843Z,50.80
2019-05-30T16:05:10.509Z,51.20
2019-05-30T16:07:38.257Z,53.60
2019-05-30T16:10:06.181Z,53.20
2019-05-30T16:12:33.720Z,54.20
2019-05-30T16:15:01.279Z,54.80
2019-05-30T16:17:28.819Z,53.40
2019-05-30T16:19:56.383Z,54.80
2019-05-30T16:22:23.970Z,55.50
2019-05-30T16:24:51.531Z,55.20
2019-05-30T16:27:19.818Z,54.30
2019-05-30T16:29:47.545Z,55.10
2019-05-30T16:32:15.836Z,53.50
2019-05-30T16:34:43.539Z,53.80
2019-05-30T16:37:11.100Z,55.50
2019-05-30T16:39:38.655Z,55.40
2019-05-30T16:42:06.200Z,54.40
2019-05-30T16:44:33.772Z,54.20
2019-05-30T16:47:01.304Z,55.10
2019-05-30T16:49:28.858Z,56.30
2019-05-30T16:51:56.404Z,53.70
2019-05-30T16:54:24.000Z,55.80
2019-05-30T16:56:51.556Z,54.50
2019-05-30T16:59:19.090Z,56.40
2019-05-30T17:01:56.783Z,55.90
2019-05-30T17:04:16.945Z,54.90
2019-05-30T17:06:44.554Z,54.50
2019-05-30T17:09:12.119Z,55.60
2019-05-30T17:11:39.648Z,54.50
2019-05-30T17:14:07.226Z,55.30
2019-05-30T17:16:34.772Z,55.80
2019-05-30T17:19:02.330Z,55.60
2019-05-30T17:21:29.957Z,56.10
2019-05-30T17:23:57.518Z,56.30
2019-05-30T17:26:25.373Z,56.70
2019-05-30T17:28:53.020Z,57.00
2019-05-30T17:31:21.635Z,56.80
2019-05-30T17:33:49.422Z,57.60
2019-05-30T17:36:18.051Z,59.00
2019-05-30T17:38:45.736Z,58.80
2019-05-30T17:41:13.313Z,59.10
2019-05-30T17:43:40.864Z,59.90
2019-05-30T17:46:08.501Z,59.50
2019-05-30T17:48:36.047Z,60.60
2019-05-30T17:51:03.658Z,60.60
2019-05-30T17:53:31.224Z,61.60
2019-05-30T17:55:59.460Z,62.40
2019-05-30T17:58:28.041Z,62.30
2019-05-30T18:00:57.213Z,62.10
2019-05-30T18:03:25.002Z,63.20
2019-05-30T18:05:52.544Z,64.00
2019-05-30T18:08:20.835Z,65.20
2019-05-30T18:10:53.720Z,66.00
2019-05-30T18:13:17.933Z,65.80
2019-05-30T18:15:45.491Z,66.70
2019-05-30T18:18:13.028Z,66.80
2019-05-30T18:20:48.445Z,67.00
2019-05-30T18:23:09.874Z,68.40
2019-05-30T18:25:37.436Z,68.90
2019-05-30T18:28:04.979Z,69.40
2019-05-30T18:30:34.195Z,70.00
2019-05-30T18:33:01.750Z,70.40
2019-05-30T18:35:30.243Z,70.90
2019-05-30T18:37:58.043Z,72.40
2019-05-30T18:40:30.894Z,72.90
2019-05-30T18:42:58.465Z,72.90
2019-05-30T18:45:36.759Z,74.10
2019-05-30T18:48:04.315Z,75.50
2019-05-30T18:50:31.873Z,77.10
2019-05-30T18:52:59.417Z,78.80
2019-05-30T18:55:26.982Z,79.50
2019-05-30T18:57:54.525Z,81.40
2019-05-30T19:00:22.095Z,83.10
2019-05-30T19:02:49.656Z,84.70
2019-05-30T19:05:17.192Z,86.10
2019-05-30T19:07:44.757Z,87.70
2019-05-30T19:10:12.868Z,89.20
2019-05-30T19:12:40.440Z,90.20
2019-05-30T19:15:08.074Z,90.70
2019-05-30T19:17:36.025Z,91.30
2019-05-30T19:20:05.281Z,92.10
2019-05-30T19:22:34.132Z,92.90
2019-05-30T19:25:01.771Z,93.80
2019-05-30T19:27:32.399Z,94.60
2019-05-30T19:29:58.583Z,95.10
2019-05-30T19:32:26.459Z,96.10
2019-05-30T19:34:54.043Z,96.70
2019-05-30T19:37:21.571Z,97.70
2019-05-30T19:39:49.122Z,98.80
2019-05-30T19:42:16.662Z,99.90
2019-05-30T19:44:44.213Z,99.90
2019-05-30T19:47:11.745Z,99.90
2019-05-30T19:49:39.329Z,99.90
2019-05-30T19:52:06.875Z,99.90
2019-05-30T19:54:35.174Z,99.90
2019-05-30T19:57:02.847Z,99.90
2019-05-30T19:59:31.576Z,99.90
2019-05-30T20:01:59.232Z,99.90
2019-05-30T20:04:26.791Z,99.90
2019-05-30T20:06:54.370Z,99.90
2019-05-30T20:09:21.930Z,99.90
2019-05-30T20:12:02.671Z,99.90
2019-05-30T20:14:18.807Z,99.90
2019-05-30T20:16:46.343Z,99.90
2019-05-30T20:19:13.903Z,99.90
2019-05-30T20:21:41.997Z,99.90
2019-05-30T20:24:09.734Z,99.90
2019-05-30T20:26:38.489Z,99.90
2019-05-30T20:29:06.128Z,99.90
2019-05-30T20:31:33.687Z,99.90
2019-05-30T20:34:01.211Z,99.90
2019-05-30T20:36:28.808Z,99.90
2019-05-30T20:38:56.389Z,99.90
2019-05-30T20:41:23.927Z,99.90
2019-05-30T20:43:51.459Z,99.90
2019-05-30T20:46:23.291Z,99.90
2019-05-30T20:48:48.328Z,99.90
2019-05-30T20:51:21.164Z,99.90
2019-05-30T20:53:45.150Z,99.90
2019-05-30T20:56:12.709Z,99.90
2019-05-30T20:58:40.237Z,99.90
2019-05-30T21:01:07.798Z,99.90
2019-05-30T21:03:35.635Z,99.90
2019-05-30T21:06:03.279Z,99.90
2019-05-30T21:08:31.171Z,99.90
2019-05-30T21:10:58.801Z,99.90
2019-05-30T21:13:26.532Z,99.90
2019-05-30T21:15:54.090Z,99.90
2019-05-30T21:18:21.636Z,99.90
2019-05-30T21:20:49.180Z,99.90
2019-05-30T21:23:16.715Z,99.90
2019-05-30T21:25:45.182Z,99.90
2019-05-30T21:28:12.826Z,99.90
2019-05-30T21:30:41.312Z,99.90
2019-05-30T21:33:09.060Z,99.90
2019-05-30T21:35:37.463Z,99.90
2019-05-30T21:38:05.255Z,99.90
2019-05-30T21:40:32.811Z,99.90
2019-05-30T21:43:17.931Z,99.90
2019-05-30T21:45:29.675Z,99.90
2019-05-30T21:47:57.221Z,99.90
2019-05-30T21:50:24.769Z,99.90
2019-05-30T21:52:52.336Z,99.90
2019-05-30T21:55:19.888Z,99.90
2019-05-30T21:57:48.143Z,99.90
2019-05-30T22:00:34.465Z,99.90
2019-05-30T22:03:01.999Z,99.90
2019-05-30T22:05:29.523Z,99.90
2019-05-30T22:07:57.089Z,99.90
2019-05-30T22:10:24.629Z,99.90
2019-05-30T22:12:52.176Z,99.90
2019-05-30T22:15:19.745Z,99.90
2019-05-30T22:17:47.920Z,99.90
2019-05-30T22:20:15.620Z,99.90
2019-05-30T22:22:43.884Z,99.90
2019-05-30T22:25:11.516Z,99.90
2019-05-30T22:27:39.047Z,99.90
2019-05-30T22:30:06.638Z,99.90
2019-05-30T22:32:34.237Z,99.90
2019-05-30T22:35:01.852Z,99.90
2019-05-30T22:37:29.414Z,99.90
2019-05-30T22:39:56.951Z,99.90
2019-05-30T22:42:24.528Z,99.90
2019-05-30T22:44:52.848Z,99.90
2019-05-30T22:47:20.378Z,99.90
2019-05-30T22:49:48.710Z,99.90
2019-05-30T22:52:16.388Z,99.90
2019-05-30T22:54:45.076Z,99.90
2019-05-30T22:57:12.892Z,99.90
2019-05-30T22:59:40.430Z,99.90
2019-05-30T23:02:08.008Z,99.90
2019-05-30T23:04:35.551Z,99.90
2019-05-30T23:07:03.078Z,99.90
2019-05-30T23:09:30.673Z,99.90
2019-05-30T23:11:58.227Z,99.90
2019-05-30T23:14:25.766Z,99.90
2019-05-30T23:16:54.373Z,99.90
2019-05-30T23:19:22.198Z,99.90
2019-05-30T23:21:50.787Z,99.90
2019-05-30T23:24:19.168Z,99.90
2019-05-30T23:26:47.397Z,99.90
2019-05-30T23:29:15.083Z,99.90
2019-05-30T23:31:42.628Z,99.90
2019-05-30T23:34:10.185Z,99.90
2019-05-30T23:36:37.735Z,99.90
2019-05-30T23:39:05.973Z,99.90
2019-05-30T23:41:33.518Z,99.90
2019-05-30T23:44:10.737Z,99.90
2019-05-30T23:46:30.344Z,99.90
2019-05-30T23:48:57.905Z,99.90
2019-05-30T23:51:25.440Z,99.90
2019-05-30T23:53:54.065Z,99.90
2019-05-30T23:56:21.741Z,99.90
2019-05-30T23:58:50.428Z,99.90
